sensor_id;sensor_type;location;lat;lon;timestamp;P1;durP1;ratioP1;P2;durP2;ratioP2
33152;SDS011;19509;43.862;26.176;2024-03-29T00:01:08;0.87;;;0.87;;
33152;SDS011;19509;43.862;26.176;2024-03-29T00:03:33;1.23;;;0.60;;
33152;SDS011;19509;43.862;26.176;2024-03-29T00:05:58;0.70;;;0.70;;
33152;SDS011;19509;43.862;26.176;2024-03-29T00:08:24;0.60;;;0.60;;
33152;SDS011;19509;43.862;26.176;2024-03-29T00:10:49;0.70;;;0.70;;
33152;SDS011;19509;43.862;26.176;2024-03-29T00:13:15;0.60;;;0.60;;
33152;SDS011;19509;43.862;26.176;2024-03-29T00:15:40;0.90;;;0.90;;
33152;SDS011;19509;43.862;26.176;2024-03-29T00:18:06;0.80;;;0.80;;
33152;SDS011;19509;43.862;26.176;2024-03-29T00:20:31;0.60;;;0.60;;
33152;SDS011;19509;43.862;26.176;2024-03-29T00:22:56;0.70;;;0.70;;
33152;SDS011;19509;43.862;26.176;2024-03-29T00:25:22;0.60;;;0.60;;
33152;SDS011;19509;43.862;26.176;2024-03-29T00:27:48;0.60;;;0.60;;
33152;SDS011;19509;43.862;26.176;2024-03-29T00:30:13;0.50;;;0.50;;
33152;SDS011;19509;43.862;26.176;2024-03-29T00:32:39;0.70;;;0.70;;
33152;SDS011;19509;43.862;26.176;2024-03-29T00:35:04;0.60;;;0.60;;
33152;SDS011;19509;43.862;26.176;2024-03-29T00:37:30;0.60;;;0.60;;
33152;SDS011;19509;43.862;26.176;2024-03-29T00:39:55;0.60;;;0.60;;
33152;SDS011;19509;43.862;26.176;2024-03-29T00:42:21;1.03;;;0.90;;
33152;SDS011;19509;43.862;26.176;2024-03-29T00:44:46;0.60;;;0.60;;
33152;SDS011;19509;43.862;26.176;2024-03-29T00:47:12;0.67;;;0.67;;
33152;SDS011;19509;43.862;26.176;2024-03-29T00:49:38;0.67;;;0.67;;
33152;SDS011;19509;43.862;26.176;2024-03-29T00:52:04;0.73;;;0.73;;
33152;SDS011;19509;43.862;26.176;2024-03-29T00:54:30;0.63;;;0.63;;
33152;SDS011;19509;43.862;26.176;2024-03-29T00:56:55;0.60;;;0.60;;
33152;SDS011;19509;43.862;26.176;2024-03-29T00:59:21;2.63;;;0.70;;
33152;SDS011;19509;43.862;26.176;2024-03-29T01:01:46;0.77;;;0.77;;
33152;SDS011;19509;43.862;26.176;2024-03-29T01:04:12;0.60;;;0.60;;
33152;SDS011;19509;43.862;26.176;2024-03-29T01:06:38;0.63;;;0.63;;
33152;SDS011;19509;43.862;26.176;2024-03-29T01:09:03;0.60;;;0.60;;
33152;SDS011;19509;43.862;26.176;2024-03-29T01:11:29;0.60;;;0.60;;
33152;SDS011;19509;43.862;26.176;2024-03-29T01:13:55;0.77;;;0.77;;
33152;SDS011;19509;43.862;26.176;2024-03-29T01:16:20;0.63;;;0.63;;
33152;SDS011;19509;43.862;26.176;2024-03-29T01:18:46;0.63;;;0.63;;
33152;SDS011;19509;43.862;26.176;2024-03-29T01:21:12;0.63;;;0.63;;
33152;SDS011;19509;43.862;26.176;2024-03-29T01:23:37;0.80;;;0.80;;
33152;SDS011;19509;43.862;26.176;2024-03-29T01:26:03;0.50;;;0.50;;
33152;SDS011;19509;43.862;26.176;2024-03-29T01:28:29;0.57;;;0.57;;
33152;SDS011;19509;43.862;26.176;2024-03-29T01:30:54;0.70;;;0.70;;
33152;SDS011;19509;43.862;26.176;2024-03-29T01:33:20;0.80;;;0.80;;
33152;SDS011;19509;43.862;26.176;2024-03-29T01:35:46;2.67;;;0.70;;
33152;SDS011;19509;43.862;26.176;2024-03-29T01:38:11;1.10;;;0.60;;
33152;SDS011;19509;43.862;26.176;2024-03-29T01:40:37;0.70;;;0.70;;
33152;SDS011;19509;43.862;26.176;2024-03-29T01:43:02;0.70;;;0.70;;
33152;SDS011;19509;43.862;26.176;2024-03-29T01:45:28;0.60;;;0.60;;
33152;SDS011;19509;43.862;26.176;2024-03-29T01:47:54;0.80;;;0.80;;
33152;SDS011;19509;43.862;26.176;2024-03-29T01:50:20;0.70;;;0.70;;
33152;SDS011;19509;43.862;26.176;2024-03-29T01:52:45;0.73;;;0.73;;
33152;SDS011;19509;43.862;26.176;2024-03-29T01:55:11;0.57;;;0.57;;
33152;SDS011;19509;43.862;26.176;2024-03-29T01:57:36;0.70;;;0.70;;
33152;SDS011;19509;43.862;26.176;2024-03-29T02:00:02;0.60;;;0.60;;
33152;SDS011;19509;43.862;26.176;2024-03-29T02:02:30;0.70;;;0.70;;
33152;SDS011;19509;43.862;26.176;2024-03-29T02:04:57;0.87;;;0.87;;
33152;SDS011;19509;43.862;26.176;2024-03-29T02:07:23;0.60;;;0.60;;
33152;SDS011;19509;43.862;26.176;2024-03-29T02:09:48;0.83;;;0.83;;
33152;SDS011;19509;43.862;26.176;2024-03-29T02:12:14;0.67;;;0.67;;
33152;SDS011;19509;43.862;26.176;2024-03-29T02:14:39;0.70;;;0.70;;
33152;SDS011;19509;43.862;26.176;2024-03-29T02:17:07;0.60;;;0.60;;
33152;SDS011;19509;43.862;26.176;2024-03-29T02:19:33;0.53;;;0.53;;
33152;SDS011;19509;43.862;26.176;2024-03-29T02:21:59;0.70;;;0.70;;
33152;SDS011;19509;43.862;26.176;2024-03-29T02:24:24;0.60;;;0.60;;
33152;SDS011;19509;43.862;26.176;2024-03-29T02:26:50;0.87;;;0.60;;
33152;SDS011;19509;43.862;26.176;2024-03-29T02:29:15;0.80;;;0.80;;
33152;SDS011;19509;43.862;26.176;2024-03-29T02:31:41;0.80;;;0.80;;
33152;SDS011;19509;43.862;26.176;2024-03-29T02:34:06;0.70;;;0.70;;
33152;SDS011;19509;43.862;26.176;2024-03-29T02:36:33;0.80;;;0.80;;
33152;SDS011;19509;43.862;26.176;2024-03-29T02:38:58;0.80;;;0.80;;
33152;SDS011;19509;43.862;26.176;2024-03-29T02:41:23;0.90;;;0.90;;
33152;SDS011;19509;43.862;26.176;2024-03-29T02:43:51;0.60;;;0.60;;
33152;SDS011;19509;43.862;26.176;2024-03-29T02:46:16;0.70;;;0.70;;
33152;SDS011;19509;43.862;26.176;2024-03-29T02:48:41;0.77;;;0.77;;
33152;SDS011;19509;43.862;26.176;2024-03-29T02:51:07;0.60;;;0.60;;
33152;SDS011;19509;43.862;26.176;2024-03-29T02:53:32;0.70;;;0.70;;
33152;SDS011;19509;43.862;26.176;2024-03-29T02:55:58;0.80;;;0.80;;
33152;SDS011;19509;43.862;26.176;2024-03-29T02:58:23;0.73;;;0.73;;
33152;SDS011;19509;43.862;26.176;2024-03-29T03:00:49;0.70;;;0.70;;
33152;SDS011;19509;43.862;26.176;2024-03-29T03:03:15;0.80;;;0.80;;
33152;SDS011;19509;43.862;26.176;2024-03-29T03:05:41;0.63;;;0.63;;
33152;SDS011;19509;43.862;26.176;2024-03-29T03:08:07;0.70;;;0.70;;
33152;SDS011;19509;43.862;26.176;2024-03-29T03:10:50;0.67;;;0.67;;
33152;SDS011;19509;43.862;26.176;2024-03-29T03:13:24;0.70;;;0.70;;
33152;SDS011;19509;43.862;26.176;2024-03-29T03:15:50;0.70;;;0.70;;
33152;SDS011;19509;43.862;26.176;2024-03-29T03:18:15;0.80;;;0.80;;
33152;SDS011;19509;43.862;26.176;2024-03-29T03:20:40;0.60;;;0.60;;
33152;SDS011;19509;43.862;26.176;2024-03-29T03:23:06;0.70;;;0.70;;
33152;SDS011;19509;43.862;26.176;2024-03-29T03:25:32;0.80;;;0.80;;
33152;SDS011;19509;43.862;26.176;2024-03-29T03:27:57;0.70;;;0.70;;
33152;SDS011;19509;43.862;26.176;2024-03-29T03:30:23;0.70;;;0.70;;
33152;SDS011;19509;43.862;26.176;2024-03-29T03:32:48;0.70;;;0.70;;
33152;SDS011;19509;43.862;26.176;2024-03-29T03:35:14;0.80;;;0.80;;
33152;SDS011;19509;43.862;26.176;2024-03-29T03:37:39;0.77;;;0.77;;
33152;SDS011;19509;43.862;26.176;2024-03-29T03:40:05;0.70;;;0.70;;
33152;SDS011;19509;43.862;26.176;2024-03-29T03:42:31;0.80;;;0.80;;
33152;SDS011;19509;43.862;26.176;2024-03-29T03:44:57;0.73;;;0.73;;
33152;SDS011;19509;43.862;26.176;2024-03-29T03:47:22;0.70;;;0.70;;
33152;SDS011;19509;43.862;26.176;2024-03-29T03:49:48;0.80;;;0.80;;
33152;SDS011;19509;43.862;26.176;2024-03-29T03:52:13;0.70;;;0.70;;
33152;SDS011;19509;43.862;26.176;2024-03-29T03:54:39;0.80;;;0.80;;
33152;SDS011;19509;43.862;26.176;2024-03-29T03:57:04;0.80;;;0.80;;
33152;SDS011;19509;43.862;26.176;2024-03-29T03:59:30;0.70;;;0.70;;
33152;SDS011;19509;43.862;26.176;2024-03-29T04:01:55;0.80;;;0.80;;
33152;SDS011;19509;43.862;26.176;2024-03-29T04:04:21;0.70;;;0.70;;
33152;SDS011;19509;43.862;26.176;2024-03-29T04:06:46;0.63;;;0.63;;
33152;SDS011;19509;43.862;26.176;2024-03-29T04:09:15;0.80;;;0.80;;
33152;SDS011;19509;43.862;26.176;2024-03-29T04:11:43;0.80;;;0.80;;
33152;SDS011;19509;43.862;26.176;2024-03-29T04:14:08;0.70;;;0.70;;
33152;SDS011;19509;43.862;26.176;2024-03-29T04:16:34;0.60;;;0.60;;
33152;SDS011;19509;43.862;26.176;2024-03-29T04:18:59;0.50;;;0.50;;
33152;SDS011;19509;43.862;26.176;2024-03-29T04:21:24;0.60;;;0.60;;
33152;SDS011;19509;43.862;26.176;2024-03-29T04:23:50;0.90;;;0.90;;
33152;SDS011;19509;43.862;26.176;2024-03-29T04:26:15;0.70;;;0.70;;
33152;SDS011;19509;43.862;26.176;2024-03-29T04:28:41;0.70;;;0.70;;
33152;SDS011;19509;43.862;26.176;2024-03-29T04:31:06;1.03;;;1.03;;
33152;SDS011;19509;43.862;26.176;2024-03-29T04:33:32;0.63;;;0.63;;
33152;SDS011;19509;43.862;26.176;2024-03-29T04:35:59;0.70;;;0.70;;
33152;SDS011;19509;43.862;26.176;2024-03-29T04:38:28;0.60;;;0.60;;
33152;SDS011;19509;43.862;26.176;2024-03-29T04:40:54;0.67;;;0.67;;
33152;SDS011;19509;43.862;26.176;2024-03-29T04:43:22;0.70;;;0.70;;
33152;SDS011;19509;43.862;26.176;2024-03-29T04:45:48;0.87;;;0.87;;
33152;SDS011;19509;43.862;26.176;2024-03-29T04:48:14;0.70;;;0.70;;
33152;SDS011;19509;43.862;26.176;2024-03-29T04:50:39;1.03;;;0.90;;
33152;SDS011;19509;43.862;26.176;2024-03-29T04:53:07;0.70;;;0.60;;
33152;SDS011;19509;43.862;26.176;2024-03-29T04:55:33;0.60;;;0.60;;
33152;SDS011;19509;43.862;26.176;2024-03-29T04:57:58;0.60;;;0.60;;
33152;SDS011;19509;43.862;26.176;2024-03-29T05:00:24;0.70;;;0.70;;
33152;SDS011;19509;43.862;26.176;2024-03-29T05:02:49;0.80;;;0.80;;
33152;SDS011;19509;43.862;26.176;2024-03-29T05:05:15;0.80;;;0.80;;
33152;SDS011;19509;43.862;26.176;2024-03-29T05:07:40;0.60;;;0.60;;
33152;SDS011;19509;43.862;26.176;2024-03-29T05:10:05;0.50;;;0.50;;
33152;SDS011;19509;43.862;26.176;2024-03-29T05:12:32;0.60;;;0.60;;
33152;SDS011;19509;43.862;26.176;2024-03-29T05:14:59;0.60;;;0.60;;
33152;SDS011;19509;43.862;26.176;2024-03-29T05:17:24;0.60;;;0.60;;
33152;SDS011;19509;43.862;26.176;2024-03-29T05:19:52;0.63;;;0.63;;
33152;SDS011;19509;43.862;26.176;2024-03-29T05:22:17;0.70;;;0.70;;
33152;SDS011;19509;43.862;26.176;2024-03-29T05:24:43;0.60;;;0.60;;
33152;SDS011;19509;43.862;26.176;2024-03-29T05:27:08;0.50;;;0.50;;
33152;SDS011;19509;43.862;26.176;2024-03-29T05:29:34;0.57;;;0.57;;
33152;SDS011;19509;43.862;26.176;2024-03-29T05:31:59;0.60;;;0.60;;
33152;SDS011;19509;43.862;26.176;2024-03-29T05:34:25;0.70;;;0.70;;
33152;SDS011;19509;43.862;26.176;2024-03-29T05:36:50;0.40;;;0.40;;
33152;SDS011;19509;43.862;26.176;2024-03-29T05:39:15;0.60;;;0.60;;
33152;SDS011;19509;43.862;26.176;2024-03-29T05:41:43;0.60;;;0.60;;
33152;SDS011;19509;43.862;26.176;2024-03-29T05:44:09;0.60;;;0.60;;
33152;SDS011;19509;43.862;26.176;2024-03-29T05:46:34;0.60;;;0.60;;
33152;SDS011;19509;43.862;26.176;2024-03-29T05:49:00;0.57;;;0.57;;
33152;SDS011;19509;43.862;26.176;2024-03-29T05:51:25;0.50;;;0.50;;
33152;SDS011;19509;43.862;26.176;2024-03-29T05:53:50;0.50;;;0.50;;
33152;SDS011;19509;43.862;26.176;2024-03-29T05:56:16;0.57;;;0.57;;
33152;SDS011;19509;43.862;26.176;2024-03-29T05:58:41;0.70;;;0.70;;
33152;SDS011;19509;43.862;26.176;2024-03-29T06:01:07;0.60;;;0.60;;
33152;SDS011;19509;43.862;26.176;2024-03-29T06:03:32;0.70;;;0.70;;
33152;SDS011;19509;43.862;26.176;2024-03-29T06:05:58;0.90;;;0.70;;
33152;SDS011;19509;43.862;26.176;2024-03-29T06:08:23;0.60;;;0.60;;
33152;SDS011;19509;43.862;26.176;2024-03-29T06:10:50;0.60;;;0.60;;
33152;SDS011;19509;43.862;26.176;2024-03-29T06:13:17;0.57;;;0.57;;
33152;SDS011;19509;43.862;26.176;2024-03-29T06:15:54;0.60;;;0.60;;
33152;SDS011;19509;43.862;26.176;2024-03-29T06:18:38;0.50;;;0.50;;
33152;SDS011;19509;43.862;26.176;2024-03-29T06:21:04;0.57;;;0.57;;
33152;SDS011;19509;43.862;26.176;2024-03-29T06:23:29;0.47;;;0.47;;
33152;SDS011;19509;43.862;26.176;2024-03-29T06:25:54;0.40;;;0.40;;
33152;SDS011;19509;43.862;26.176;2024-03-29T06:28:20;0.40;;;0.40;;
33152;SDS011;19509;43.862;26.176;2024-03-29T06:30:45;0.40;;;0.40;;
33152;SDS011;19509;43.862;26.176;2024-03-29T06:33:10;0.47;;;0.47;;
33152;SDS011;19509;43.862;26.176;2024-03-29T06:35:36;0.40;;;0.40;;
33152;SDS011;19509;43.862;26.176;2024-03-29T06:38:02;0.40;;;0.40;;
33152;SDS011;19509;43.862;26.176;2024-03-29T06:40:27;0.40;;;0.40;;
33152;SDS011;19509;43.862;26.176;2024-03-29T06:42:53;0.40;;;0.40;;
33152;SDS011;19509;43.862;26.176;2024-03-29T06:45:21;0.50;;;0.50;;
33152;SDS011;19509;43.862;26.176;2024-03-29T06:47:46;0.50;;;0.50;;
33152;SDS011;19509;43.862;26.176;2024-03-29T06:50:12;0.47;;;0.47;;
33152;SDS011;19509;43.862;26.176;2024-03-29T06:52:37;0.60;;;0.60;;
33152;SDS011;19509;43.862;26.176;2024-03-29T06:55:03;0.40;;;0.40;;
33152;SDS011;19509;43.862;26.176;2024-03-29T06:57:28;0.40;;;0.40;;
33152;SDS011;19509;43.862;26.176;2024-03-29T06:59:56;0.40;;;0.40;;
33152;SDS011;19509;43.862;26.176;2024-03-29T07:02:21;0.43;;;0.43;;
33152;SDS011;19509;43.862;26.176;2024-03-29T07:04:47;0.50;;;0.50;;
33152;SDS011;19509;43.862;26.176;2024-03-29T07:07:12;0.43;;;0.43;;
33152;SDS011;19509;43.862;26.176;2024-03-29T07:09:38;0.30;;;0.30;;
33152;SDS011;19509;43.862;26.176;2024-03-29T07:12:03;0.40;;;0.40;;
33152;SDS011;19509;43.862;26.176;2024-03-29T07:14:29;0.50;;;0.50;;
33152;SDS011;19509;43.862;26.176;2024-03-29T07:16:56;0.40;;;0.40;;
33152;SDS011;19509;43.862;26.176;2024-03-29T07:19:22;0.47;;;0.47;;
33152;SDS011;19509;43.862;26.176;2024-03-29T07:21:47;0.50;;;0.50;;
33152;SDS011;19509;43.862;26.176;2024-03-29T07:24:13;0.50;;;0.50;;
33152;SDS011;19509;43.862;26.176;2024-03-29T07:26:38;0.50;;;0.50;;
33152;SDS011;19509;43.862;26.176;2024-03-29T07:29:05;0.40;;;0.40;;
33152;SDS011;19509;43.862;26.176;2024-03-29T07:31:31;0.40;;;0.40;;
33152;SDS011;19509;43.862;26.176;2024-03-29T07:33:56;0.40;;;0.40;;
33152;SDS011;19509;43.862;26.176;2024-03-29T07:36:21;0.40;;;0.40;;
33152;SDS011;19509;43.862;26.176;2024-03-29T07:38:49;0.47;;;0.47;;
33152;SDS011;19509;43.862;26.176;2024-03-29T07:41:15;0.40;;;0.40;;
33152;SDS011;19509;43.862;26.176;2024-03-29T07:43:41;0.47;;;0.47;;
33152;SDS011;19509;43.862;26.176;2024-03-29T07:46:07;0.40;;;0.40;;
33152;SDS011;19509;43.862;26.176;2024-03-29T07:48:34;0.50;;;0.50;;
33152;SDS011;19509;43.862;26.176;2024-03-29T07:51:00;0.40;;;0.40;;
33152;SDS011;19509;43.862;26.176;2024-03-29T07:53:25;0.43;;;0.43;;
33152;SDS011;19509;43.862;26.176;2024-03-29T07:55:50;0.40;;;0.40;;
33152;SDS011;19509;43.862;26.176;2024-03-29T07:58:16;0.50;;;0.50;;
33152;SDS011;19509;43.862;26.176;2024-03-29T08:00:42;0.40;;;0.40;;
33152;SDS011;19509;43.862;26.176;2024-03-29T08:03:07;0.40;;;0.40;;
33152;SDS011;19509;43.862;26.176;2024-03-29T08:05:33;0.47;;;0.47;;
33152;SDS011;19509;43.862;26.176;2024-03-29T08:07:59;0.50;;;0.50;;
33152;SDS011;19509;43.862;26.176;2024-03-29T08:10:24;0.40;;;0.40;;
33152;SDS011;19509;43.862;26.176;2024-03-29T08:12:50;0.40;;;0.40;;
33152;SDS011;19509;43.862;26.176;2024-03-29T08:15:15;0.40;;;0.40;;
33152;SDS011;19509;43.862;26.176;2024-03-29T08:17:43;0.37;;;0.37;;
33152;SDS011;19509;43.862;26.176;2024-03-29T08:20:08;0.40;;;0.40;;
33152;SDS011;19509;43.862;26.176;2024-03-29T08:22:34;0.40;;;0.40;;
33152;SDS011;19509;43.862;26.176;2024-03-29T08:24:59;0.50;;;0.50;;
33152;SDS011;19509;43.862;26.176;2024-03-29T08:27:26;0.50;;;0.50;;
33152;SDS011;19509;43.862;26.176;2024-03-29T08:29:51;0.50;;;0.50;;
33152;SDS011;19509;43.862;26.176;2024-03-29T08:32:17;0.70;;;0.63;;
33152;SDS011;19509;43.862;26.176;2024-03-29T08:34:42;0.70;;;0.70;;
33152;SDS011;19509;43.862;26.176;2024-03-29T08:37:08;0.50;;;0.50;;
33152;SDS011;19509;43.862;26.176;2024-03-29T08:39:33;0.40;;;0.40;;
33152;SDS011;19509;43.862;26.176;2024-03-29T08:41:59;0.50;;;0.50;;
33152;SDS011;19509;43.862;26.176;2024-03-29T08:44:27;0.50;;;0.50;;
33152;SDS011;19509;43.862;26.176;2024-03-29T08:46:53;0.47;;;0.47;;
33152;SDS011;19509;43.862;26.176;2024-03-29T08:49:21;0.77;;;0.50;;
33152;SDS011;19509;43.862;26.176;2024-03-29T08:51:46;0.50;;;0.50;;
33152;SDS011;19509;43.862;26.176;2024-03-29T08:54:12;0.60;;;0.60;;
33152;SDS011;19509;43.862;26.176;2024-03-29T08:56:37;0.50;;;0.50;;
33152;SDS011;19509;43.862;26.176;2024-03-29T08:59:05;0.40;;;0.40;;
33152;SDS011;19509;43.862;26.176;2024-03-29T09:01:36;0.93;;;0.50;;
33152;SDS011;19509;43.862;26.176;2024-03-29T09:04:01;0.40;;;0.40;;
33152;SDS011;19509;43.862;26.176;2024-03-29T09:06:28;0.50;;;0.50;;
33152;SDS011;19509;43.862;26.176;2024-03-29T09:08:54;0.40;;;0.40;;
33152;SDS011;19509;43.862;26.176;2024-03-29T09:11:19;1.07;;;0.60;;
33152;SDS011;19509;43.862;26.176;2024-03-29T09:13:44;0.50;;;0.50;;
33152;SDS011;19509;43.862;26.176;2024-03-29T09:16:10;0.50;;;0.50;;
33152;SDS011;19509;43.862;26.176;2024-03-29T09:18:35;0.40;;;0.40;;
33152;SDS011;19509;43.862;26.176;2024-03-29T09:21:01;0.50;;;0.50;;
33152;SDS011;19509;43.862;26.176;2024-03-29T09:23:26;0.50;;;0.50;;
33152;SDS011;19509;43.862;26.176;2024-03-29T09:25:55;0.70;;;0.70;;
33152;SDS011;19509;43.862;26.176;2024-03-29T09:28:24;0.40;;;0.40;;
33152;SDS011;19509;43.862;26.176;2024-03-29T09:30:49;0.43;;;0.43;;
33152;SDS011;19509;43.862;26.176;2024-03-29T09:33:15;0.40;;;0.40;;
33152;SDS011;19509;43.862;26.176;2024-03-29T09:35:41;0.40;;;0.40;;
33152;SDS011;19509;43.862;26.176;2024-03-29T09:38:06;0.50;;;0.50;;
33152;SDS011;19509;43.862;26.176;2024-03-29T09:40:31;0.60;;;0.60;;
33152;SDS011;19509;43.862;26.176;2024-03-29T09:42:59;0.53;;;0.50;;
33152;SDS011;19509;43.862;26.176;2024-03-29T09:45:31;1.03;;;0.60;;
33152;SDS011;19509;43.862;26.176;2024-03-29T09:47:58;1.00;;;0.60;;
33152;SDS011;19509;43.862;26.176;2024-03-29T09:50:25;0.50;;;0.50;;
33152;SDS011;19509;43.862;26.176;2024-03-29T09:52:50;0.60;;;0.50;;
33152;SDS011;19509;43.862;26.176;2024-03-29T09:55:16;0.50;;;0.50;;
33152;SDS011;19509;43.862;26.176;2024-03-29T09:57:41;0.53;;;0.50;;
33152;SDS011;19509;43.862;26.176;2024-03-29T10:00:07;0.47;;;0.47;;
33152;SDS011;19509;43.862;26.176;2024-03-29T10:02:33;0.60;;;0.60;;
33152;SDS011;19509;43.862;26.176;2024-03-29T10:04:58;1.33;;;0.70;;
33152;SDS011;19509;43.862;26.176;2024-03-29T10:07:28;0.40;;;0.40;;
33152;SDS011;19509;43.862;26.176;2024-03-29T10:09:55;0.40;;;0.40;;
33152;SDS011;19509;43.862;26.176;2024-03-29T10:12:22;0.50;;;0.50;;
33152;SDS011;19509;43.862;26.176;2024-03-29T10:14:47;0.50;;;0.50;;
33152;SDS011;19509;43.862;26.176;2024-03-29T10:17:25;0.57;;;0.57;;
33152;SDS011;19509;43.862;26.176;2024-03-29T10:19:50;0.60;;;0.60;;
33152;SDS011;19509;43.862;26.176;2024-03-29T10:22:16;0.40;;;0.40;;
33152;SDS011;19509;43.862;26.176;2024-03-29T10:24:42;0.60;;;0.60;;
33152;SDS011;19509;43.862;26.176;2024-03-29T10:27:07;0.53;;;0.53;;
33152;SDS011;19509;43.862;26.176;2024-03-29T10:29:33;0.50;;;0.50;;
33152;SDS011;19509;43.862;26.176;2024-03-29T10:31:59;0.60;;;0.60;;
33152;SDS011;19509;43.862;26.176;2024-03-29T10:34:25;0.60;;;0.60;;
33152;SDS011;19509;43.862;26.176;2024-03-29T10:36:51;0.50;;;0.50;;
33152;SDS011;19509;43.862;26.176;2024-03-29T10:39:16;0.50;;;0.50;;
33152;SDS011;19509;43.862;26.176;2024-03-29T10:41:43;0.40;;;0.40;;
33152;SDS011;19509;43.862;26.176;2024-03-29T10:44:09;0.53;;;0.53;;
33152;SDS011;19509;43.862;26.176;2024-03-29T10:46:36;0.50;;;0.50;;
33152;SDS011;19509;43.862;26.176;2024-03-29T10:49:01;0.50;;;0.50;;
33152;SDS011;19509;43.862;26.176;2024-03-29T10:51:28;0.40;;;0.40;;
33152;SDS011;19509;43.862;26.176;2024-03-29T10:53:54;0.50;;;0.50;;
33152;SDS011;19509;43.862;26.176;2024-03-29T10:56:22;0.40;;;0.40;;
33152;SDS011;19509;43.862;26.176;2024-03-29T10:58:48;0.50;;;0.50;;
33152;SDS011;19509;43.862;26.176;2024-03-29T11:01:15;0.70;;;0.70;;
33152;SDS011;19509;43.862;26.176;2024-03-29T11:03:44;0.50;;;0.50;;
33152;SDS011;19509;43.862;26.176;2024-03-29T11:06:09;0.50;;;0.50;;
33152;SDS011;19509;43.862;26.176;2024-03-29T11:08:37;0.50;;;0.50;;
33152;SDS011;19509;43.862;26.176;2024-03-29T11:11:05;0.50;;;0.50;;
33152;SDS011;19509;43.862;26.176;2024-03-29T11:13:37;0.43;;;0.43;;
33152;SDS011;19509;43.862;26.176;2024-03-29T11:16:03;0.40;;;0.40;;
33152;SDS011;19509;43.862;26.176;2024-03-29T11:18:29;0.40;;;0.40;;
33152;SDS011;19509;43.862;26.176;2024-03-29T11:20:55;1.13;;;0.60;;
33152;SDS011;19509;43.862;26.176;2024-03-29T11:23:22;0.50;;;0.50;;
33152;SDS011;19509;43.862;26.176;2024-03-29T11:25:48;0.60;;;0.60;;
33152;SDS011;19509;43.862;26.176;2024-03-29T11:28:15;1.03;;;0.50;;
33152;SDS011;19509;43.862;26.176;2024-03-29T11:30:46;0.50;;;0.50;;
33152;SDS011;19509;43.862;26.176;2024-03-29T11:35:57;0.50;;;0.50;;
33152;SDS011;19509;43.862;26.176;2024-03-29T11:38:28;0.50;;;0.50;;
33152;SDS011;19509;43.862;26.176;2024-03-29T11:40:54;0.40;;;0.40;;
33152;SDS011;19509;43.862;26.176;2024-03-29T11:43:20;0.63;;;0.47;;
33152;SDS011;19509;43.862;26.176;2024-03-29T11:45:45;0.47;;;0.47;;
33152;SDS011;19509;43.862;26.176;2024-03-29T11:48:17;0.47;;;0.47;;
33152;SDS011;19509;43.862;26.176;2024-03-29T11:50:44;0.50;;;0.50;;
33152;SDS011;19509;43.862;26.176;2024-03-29T11:53:10;0.50;;;0.50;;
33152;SDS011;19509;43.862;26.176;2024-03-29T11:55:35;0.40;;;0.40;;
33152;SDS011;19509;43.862;26.176;2024-03-29T11:58:01;0.50;;;0.50;;
33152;SDS011;19509;43.862;26.176;2024-03-29T12:00:26;0.47;;;0.47;;
33152;SDS011;19509;43.862;26.176;2024-03-29T12:02:55;1.60;;;0.50;;
33152;SDS011;19509;43.862;26.176;2024-03-29T12:05:22;0.50;;;0.50;;
33152;SDS011;19509;43.862;26.176;2024-03-29T12:07:47;0.60;;;0.60;;
33152;SDS011;19509;43.862;26.176;2024-03-29T12:10:13;0.60;;;0.60;;
33152;SDS011;19509;43.862;26.176;2024-03-29T12:12:38;0.40;;;0.40;;
33152;SDS011;19509;43.862;26.176;2024-03-29T12:15:06;0.50;;;0.50;;
33152;SDS011;19509;43.862;26.176;2024-03-29T12:17:32;0.40;;;0.40;;
33152;SDS011;19509;43.862;26.176;2024-03-29T12:19:58;0.40;;;0.40;;
33152;SDS011;19509;43.862;26.176;2024-03-29T12:22:29;0.50;;;0.50;;
33152;SDS011;19509;43.862;26.176;2024-03-29T12:24:54;0.50;;;0.50;;
33152;SDS011;19509;43.862;26.176;2024-03-29T12:27:20;0.50;;;0.50;;
33152;SDS011;19509;43.862;26.176;2024-03-29T12:29:47;0.47;;;0.47;;
33152;SDS011;19509;43.862;26.176;2024-03-29T12:32:12;0.40;;;0.40;;
33152;SDS011;19509;43.862;26.176;2024-03-29T12:34:38;0.53;;;0.53;;
33152;SDS011;19509;43.862;26.176;2024-03-29T12:37:03;0.50;;;0.50;;
33152;SDS011;19509;43.862;26.176;2024-03-29T12:39:30;0.60;;;0.60;;
33152;SDS011;19509;43.862;26.176;2024-03-29T12:41:58;0.50;;;0.50;;
33152;SDS011;19509;43.862;26.176;2024-03-29T12:44:26;0.50;;;0.50;;
33152;SDS011;19509;43.862;26.176;2024-03-29T12:46:51;0.50;;;0.50;;
33152;SDS011;19509;43.862;26.176;2024-03-29T12:49:17;0.50;;;0.50;;
33152;SDS011;19509;43.862;26.176;2024-03-29T12:51:44;0.37;;;0.37;;
33152;SDS011;19509;43.862;26.176;2024-03-29T12:54:09;0.40;;;0.40;;
33152;SDS011;19509;43.862;26.176;2024-03-29T12:56:35;0.40;;;0.40;;
33152;SDS011;19509;43.862;26.176;2024-03-29T12:59:01;0.40;;;0.40;;
33152;SDS011;19509;43.862;26.176;2024-03-29T13:01:27;0.47;;;0.47;;
33152;SDS011;19509;43.862;26.176;2024-03-29T13:03:52;0.40;;;0.40;;
33152;SDS011;19509;43.862;26.176;2024-03-29T13:06:18;0.50;;;0.50;;
33152;SDS011;19509;43.862;26.176;2024-03-29T13:08:43;0.40;;;0.40;;
33152;SDS011;19509;43.862;26.176;2024-03-29T13:11:09;0.50;;;0.50;;
33152;SDS011;19509;43.862;26.176;2024-03-29T13:13:35;0.40;;;0.40;;
33152;SDS011;19509;43.862;26.176;2024-03-29T13:16:01;0.40;;;0.40;;
33152;SDS011;19509;43.862;26.176;2024-03-29T13:18:26;0.50;;;0.50;;
33152;SDS011;19509;43.862;26.176;2024-03-29T13:20:52;0.50;;;0.50;;
33152;SDS011;19509;43.862;26.176;2024-03-29T13:23:17;0.50;;;0.50;;
33152;SDS011;19509;43.862;26.176;2024-03-29T13:25:43;0.50;;;0.50;;
33152;SDS011;19509;43.862;26.176;2024-03-29T13:28:08;0.47;;;0.47;;
33152;SDS011;19509;43.862;26.176;2024-03-29T13:30:35;0.37;;;0.37;;
33152;SDS011;19509;43.862;26.176;2024-03-29T13:33:07;0.50;;;0.50;;
33152;SDS011;19509;43.862;26.176;2024-03-29T13:35:35;0.67;;;0.67;;
33152;SDS011;19509;43.862;26.176;2024-03-29T13:38:00;0.50;;;0.50;;
33152;SDS011;19509;43.862;26.176;2024-03-29T13:40:26;0.50;;;0.50;;
33152;SDS011;19509;43.862;26.176;2024-03-29T13:42:51;0.50;;;0.50;;
33152;SDS011;19509;43.862;26.176;2024-03-29T13:45:17;0.40;;;0.40;;
33152;SDS011;19509;43.862;26.176;2024-03-29T13:47:44;0.47;;;0.47;;
33152;SDS011;19509;43.862;26.176;2024-03-29T13:50:09;0.50;;;0.50;;
33152;SDS011;19509;43.862;26.176;2024-03-29T13:52:35;0.67;;;0.60;;
33152;SDS011;19509;43.862;26.176;2024-03-29T13:55:01;0.43;;;0.43;;
33152;SDS011;19509;43.862;26.176;2024-03-29T13:57:28;0.50;;;0.50;;
33152;SDS011;19509;43.862;26.176;2024-03-29T13:59:54;0.40;;;0.40;;
33152;SDS011;19509;43.862;26.176;2024-03-29T14:02:19;1.13;;;0.50;;
33152;SDS011;19509;43.862;26.176;2024-03-29T14:04:45;0.50;;;0.50;;
33152;SDS011;19509;43.862;26.176;2024-03-29T14:07:11;0.40;;;0.40;;
33152;SDS011;19509;43.862;26.176;2024-03-29T14:09:37;0.40;;;0.40;;
33152;SDS011;19509;43.862;26.176;2024-03-29T14:12:03;0.50;;;0.50;;
33152;SDS011;19509;43.862;26.176;2024-03-29T14:14:29;0.50;;;0.50;;
33152;SDS011;19509;43.862;26.176;2024-03-29T14:16:54;0.40;;;0.40;;
33152;SDS011;19509;43.862;26.176;2024-03-29T14:19:20;0.40;;;0.40;;
33152;SDS011;19509;43.862;26.176;2024-03-29T14:21:45;0.43;;;0.43;;
33152;SDS011;19509;43.862;26.176;2024-03-29T14:24:11;0.40;;;0.40;;
33152;SDS011;19509;43.862;26.176;2024-03-29T14:26:36;0.43;;;0.43;;
33152;SDS011;19509;43.862;26.176;2024-03-29T14:29:01;0.50;;;0.50;;